Portada
METAR-TAF:

METAR-TAF

Aeropuertos :

Castres, Francia

latitud: 43-33-25N, longitud: 2-17-21E, altitud: 239 m

Observación

El informe se hizo hace 14 minutos, a las 08:30 UTC
Viento 7 kt del oeste-suroeste
Temperatura 13°C
Humedad 94%
Presión 1009 hPa
Visibilidad: 4300 m
lluvia, neblina

METAR: LFCK 150830Z AUTO 25007KT 4300 RA BR OVC006/// ///CB 13/12 Q1009 TEMPO 2000 RA OVC006

Hora: 10:44 (08:44 UTC)

Pronóstico

El informe se hizo hace 44 minutos, a las 08:00 UTC
Pronóstico válido del 15 a las 09 UTC al 15 a las 18 UTC
Viento 5 kt del oeste-suroeste
Visibilidad: 6000 m
Cielo nuboso a una altura de 1300 ft
lluvia ligera
Temporalmente
del 15 a las 09 UTC al 15 a las 12 UTC
Visibilidad: 2000 m
Cielo cubierto a una altura de 600 ft
lluvia
Evolucionando progresivamente
del 15 a las 12 UTC al 15 a las 14 UTC
Visibilidad 10 km o más

TAF: LFCK 150800Z 1509/1518 24005KT 6000 -RA BKN013 TEMPO 1509/1512 2000 RA OVC006 BECMG 1512/1514 9999 NSW

Observaciones y pronósticos meteorológicos de más de 4000 aeropuertos (mensajes METAR y TAF).

Los puntos amarillos y rojos representan las estaciones disponibles.

Ponga el ratón en el punto deseado para ver el nombre de la estación.

Haga clic para ver las observaciones y los pronósticos meteorológicos.

Para cambiar el mapa : haga clic en los botones verdes con una cruz de color negro para hacer un zoom, en el botón verde con un guión para alejar o en las flechas verdes para mapas adyacentes.


METAR-TAF: